createdAt,value
2022-09-20T00:01:14.028Z,62.66
2022-09-20T00:03:44.467Z,62.78
2022-09-20T00:06:14.602Z,62.84
2022-09-20T00:08:43.221Z,62.52
2022-09-20T00:11:14.691Z,62.77
2022-09-20T00:13:45.884Z,62.72
2022-09-20T00:16:16.313Z,62.77
2022-09-20T00:18:44.844Z,62.38
2022-09-20T00:21:17.894Z,62.17
2022-09-20T00:23:46.389Z,62.71
2022-09-20T00:26:14.659Z,62.59
2022-09-20T00:28:44.790Z,62.48
2022-09-20T00:31:13.267Z,62.67
2022-09-20T00:33:59.084Z,62.48
2022-09-20T00:36:28.221Z,62.35
2022-09-20T00:38:57.533Z,62.50
2022-09-20T00:41:25.941Z,62.51
2022-09-20T00:43:55.746Z,62.10
2022-09-20T00:46:27.142Z,62.15
2022-09-20T00:48:59.553Z,62.35
2022-09-20T00:51:32.856Z,62.11
2022-09-20T00:54:04.572Z,62.03
2022-09-20T00:56:35.707Z,61.96
2022-09-20T00:59:12.690Z,61.91
2022-09-20T01:01:40.837Z,62.71
2022-09-20T01:04:09.612Z,61.86
2022-09-20T01:06:37.661Z,61.75
2022-09-20T01:09:07.717Z,61.87
2022-09-20T01:11:37.288Z,62.00
2022-09-20T01:14:06.690Z,62.14
2022-09-20T01:16:35.177Z,62.12
2022-09-20T01:19:09.587Z,61.75
2022-09-20T01:21:37.822Z,61.96
2022-09-20T01:24:13.257Z,62.00
2022-09-20T01:27:07.642Z,62.13
2022-09-20T01:29:51.349Z,62.95
2022-09-20T01:32:24.559Z,62.41
2022-09-20T01:34:57.167Z,62.14
2022-09-20T01:37:27.814Z,62.00
2022-09-20T01:40:04.551Z,62.09
2022-09-20T01:42:37.027Z,62.44
2022-09-20T01:45:15.799Z,62.30
2022-09-20T01:47:52.407Z,62.37
2022-09-20T01:50:32.670Z,62.58
2022-09-20T01:53:17.385Z,62.66
2022-09-20T01:56:17.866Z,62.51
2022-09-20T01:59:24.029Z,63.31
2022-09-20T02:02:22.392Z,63.37
2022-09-20T02:05:11.447Z,62.97
2022-09-20T02:08:03.390Z,62.99
2022-09-20T02:10:57.234Z,62.98
2022-09-20T02:13:31.307Z,62.93
2022-09-20T02:16:20.626Z,62.32
2022-09-20T02:19:18.100Z,62.59
2022-09-20T02:21:52.751Z,63.07
2022-09-20T02:24:30.274Z,62.54
2022-09-20T02:27:14.868Z,62.33
2022-09-20T02:29:49.411Z,62.82
2022-09-20T02:32:30.040Z,62.29
2022-09-20T02:35:20.810Z,62.69
2022-09-20T02:38:01.042Z,63.50
2022-09-20T02:40:55.519Z,63.21
2022-09-20T02:43:30.621Z,62.96
2022-09-20T02:46:07.559Z,62.93
2022-09-20T02:48:44.460Z,63.19
2022-09-20T02:51:22.955Z,62.71
2022-09-20T02:54:03.681Z,63.20
2022-09-20T02:56:39.370Z,63.25
2022-09-20T02:59:19.274Z,62.85
2022-09-20T03:01:57.279Z,63.05
2022-09-20T03:04:35.811Z,63.40
2022-09-20T03:07:11.228Z,63.23
2022-09-20T03:09:47.470Z,63.28
2022-09-20T03:12:27.458Z,63.25
2022-09-20T03:15:05.183Z,63.94
2022-09-20T03:17:46.060Z,63.32
2022-09-20T03:20:26.007Z,64.23
2022-09-20T03:23:02.070Z,64.03
2022-09-20T03:25:52.960Z,63.54
2022-09-20T03:28:37.684Z,63.77
2022-09-20T03:31:17.219Z,63.77
2022-09-20T03:33:53.623Z,63.15
2022-09-20T03:36:35.951Z,63.36
2022-09-20T03:39:18.982Z,64.11
2022-09-20T03:42:03.694Z,63.81
2022-09-20T03:44:51.519Z,64.78
2022-09-20T03:47:38.706Z,64.14
2022-09-20T03:50:21.998Z,63.78
2022-09-20T03:53:07.350Z,63.86
2022-09-20T03:56:05.003Z,63.66
2022-09-20T03:58:51.786Z,64.88
2022-09-20T04:01:40.014Z,64.58
2022-09-20T04:04:16.192Z,64.55
2022-09-20T04:06:58.295Z,63.68
2022-09-20T04:09:48.569Z,63.89
2022-09-20T04:12:28.622Z,64.04
2022-09-20T04:15:06.935Z,64.86
2022-09-20T04:17:43.879Z,65.75
2022-09-20T04:20:20.497Z,64.48
2022-09-20T04:22:52.238Z,64.84
2022-09-20T04:25:32.558Z,65.10
2022-09-20T04:28:10.251Z,64.10
2022-09-20T04:30:43.988Z,64.02
2022-09-20T04:33:20.291Z,64.04
2022-09-20T04:36:14.043Z,64.12
2022-09-20T04:38:42.723Z,63.66
2022-09-20T04:41:34.332Z,63.78
2022-09-20T04:44:28.190Z,64.96
2022-09-20T04:47:37.143Z,64.05
2022-09-20T04:50:31.303Z,64.94
2022-09-20T04:53:23.984Z,64.60
2022-09-20T04:55:55.658Z,65.09
2022-09-20T04:58:44.791Z,63.95
2022-09-20T05:02:00.089Z,64.14
2022-09-20T05:05:21.627Z,65.14
2022-09-20T05:08:16.262Z,64.76
2022-09-20T05:11:27.574Z,64.45
2022-09-20T05:14:12.936Z,64.53
2022-09-20T05:17:06.263Z,63.51
2022-09-20T05:19:46.603Z,63.97
2022-09-20T05:23:01.030Z,63.57
2022-09-20T05:25:49.387Z,64.04
2022-09-20T05:28:26.331Z,64.41
2022-09-20T05:30:58.704Z,63.75
2022-09-20T05:33:38.310Z,62.98
2022-09-20T05:36:13.489Z,63.75
2022-09-20T05:38:48.511Z,63.46
2022-09-20T05:41:31.887Z,64.12
2022-09-20T05:44:09.121Z,64.07
2022-09-20T05:46:51.046Z,63.54
2022-09-20T05:49:37.281Z,63.40
2022-09-20T05:52:16.586Z,63.66
2022-09-20T05:55:01.266Z,64.13
2022-09-20T05:57:47.502Z,64.40
2022-09-20T06:00:19.240Z,64.90
2022-09-20T06:02:55.816Z,63.93
2022-09-20T06:05:38.666Z,64.58
2022-09-20T06:08:26.402Z,64.15
2022-09-20T06:11:13.704Z,64.97
2022-09-20T06:14:03.584Z,64.18
2022-09-20T06:16:41.453Z,64.20
2022-09-20T06:19:19.953Z,63.79
2022-09-20T06:21:52.911Z,64.92
2022-09-20T06:24:33.425Z,63.74
2022-09-20T06:27:08.765Z,64.40
2022-09-20T06:29:49.047Z,63.94
2022-09-20T06:32:18.442Z,64.17
2022-09-20T06:34:48.435Z,63.82
2022-09-20T06:37:55.972Z,63.69
2022-09-20T06:40:51.560Z,63.96
2022-09-20T06:43:19.414Z,63.32
2022-09-20T06:45:48.546Z,63.29
2022-09-20T06:48:16.708Z,62.99
2022-09-20T06:50:45.510Z,62.75
2022-09-20T06:53:20.294Z,62.70
2022-09-20T06:55:48.707Z,62.52
2022-09-20T06:58:16.910Z,62.36
2022-09-20T07:00:45.222Z,62.21
2022-09-20T07:03:13.595Z,62.25
2022-09-20T07:05:41.806Z,62.22
2022-09-20T07:08:09.750Z,62.13
2022-09-20T07:10:39.396Z,61.58
2022-09-20T07:15:50.627Z,61.50
2022-09-20T07:18:23.179Z,61.80
2022-09-20T07:20:51.262Z,61.92
2022-09-20T07:23:19.318Z,61.80
2022-09-20T07:25:48.528Z,61.72
2022-09-20T07:28:16.420Z,61.55
2022-09-20T07:30:44.480Z,61.45
2022-09-20T07:33:17.080Z,61.30
2022-09-20T07:35:45.133Z,61.12
2022-09-20T07:38:13.336Z,60.89
2022-09-20T07:40:41.254Z,60.71
2022-09-20T07:43:10.680Z,60.26
2022-09-20T07:45:39.593Z,60.43
2022-09-20T07:48:09.555Z,60.30
2022-09-20T07:50:37.788Z,60.55
2022-09-20T07:53:05.707Z,60.23
2022-09-20T07:55:34.699Z,59.46
2022-09-20T07:58:02.832Z,59.76
2022-09-20T08:00:31.988Z,59.97
2022-09-20T08:03:01.060Z,59.85
2022-09-20T08:05:28.937Z,59.38
2022-09-20T08:07:56.886Z,59.33
2022-09-20T08:10:26.902Z,59.32
2022-09-20T08:15:44.572Z,59.10
2022-09-20T08:18:13.379Z,58.69
2022-09-20T08:20:41.249Z,58.62
2022-09-20T08:23:22.877Z,58.37
2022-09-20T08:25:51.489Z,58.30
2022-09-20T08:28:19.706Z,58.13
2022-09-20T08:30:48.962Z,58.00
2022-09-20T08:33:16.837Z,57.54
2022-09-20T08:35:44.922Z,57.80
2022-09-20T08:41:03.228Z,56.95
2022-09-20T08:43:39.732Z,56.07
2022-09-20T08:46:17.434Z,55.49
2022-09-20T08:48:46.372Z,56.14
2022-09-20T08:51:22.699Z,56.14
2022-09-20T08:53:53.578Z,56.99
2022-09-20T08:56:22.707Z,57.01
2022-09-20T08:58:51.850Z,57.08
2022-09-20T09:01:24.515Z,56.74
2022-09-20T09:03:55.133Z,54.92
2022-09-20T09:06:24.739Z,56.27
2022-09-20T09:08:53.607Z,56.36
2022-09-20T09:11:23.499Z,56.42
2022-09-20T09:13:55.347Z,55.80
2022-09-20T09:16:34.593Z,55.08
2022-09-20T09:19:33.934Z,54.68
2022-09-20T09:22:04.670Z,52.22
2022-09-20T09:24:32.742Z,55.18
2022-09-20T09:27:10.253Z,55.43
2022-09-20T09:29:52.182Z,54.13
2022-09-20T09:32:24.453Z,52.36
2022-09-20T09:34:52.490Z,54.04
2022-09-20T09:37:28.786Z,54.42
2022-09-20T09:40:10.425Z,53.97
2022-09-20T09:42:50.150Z,52.97
2022-09-20T09:45:31.355Z,53.34
2022-09-20T09:48:02.898Z,52.24
2022-09-20T09:50:33.532Z,53.33
2022-09-20T09:53:04.729Z,54.37
2022-09-20T09:55:45.670Z,54.57
2022-09-20T09:58:24.284Z,53.68
2022-09-20T10:00:54.955Z,53.63
2022-09-20T10:03:50.973Z,54.31
2022-09-20T10:06:25.905Z,51.46
2022-09-20T10:09:11.038Z,52.45
2022-09-20T10:11:50.846Z,50.72
2022-09-20T10:14:34.474Z,51.01
2022-09-20T10:17:18.998Z,50.91
2022-09-20T10:20:08.109Z,50.20
2022-09-20T10:23:06.713Z,50.84
2022-09-20T10:25:43.158Z,52.42
2022-09-20T10:28:37.886Z,52.61
2022-09-20T10:31:21.179Z,50.79
2022-09-20T10:34:16.810Z,50.87
2022-09-20T10:36:52.697Z,49.65
2022-09-20T10:39:26.347Z,48.85
2022-09-20T10:42:25.515Z,50.01
2022-09-20T10:45:07.376Z,49.67
2022-09-20T10:47:41.537Z,49.70
2022-09-20T10:50:38.292Z,51.87
2022-09-20T10:53:27.163Z,49.70
2022-09-20T10:56:09.499Z,50.47
2022-09-20T10:59:04.184Z,50.12
2022-09-20T11:01:37.863Z,49.25
2022-09-20T11:04:29.690Z,50.27
2022-09-20T11:07:09.728Z,47.47
2022-09-20T11:09:43.641Z,49.56
2022-09-20T11:12:16.564Z,49.51
2022-09-20T11:14:50.366Z,50.92
2022-09-20T11:17:23.983Z,50.46
2022-09-20T11:20:03.524Z,50.57
2022-09-20T11:22:41.382Z,49.46
2022-09-20T11:25:21.659Z,50.07
2022-09-20T11:27:56.131Z,50.63
2022-09-20T11:30:25.418Z,51.00
2022-09-20T11:32:57.953Z,50.68
2022-09-20T11:35:31.451Z,50.60
2022-09-20T11:38:09.547Z,49.63
2022-09-20T11:40:44.351Z,49.08
2022-09-20T11:43:14.814Z,49.37
2022-09-20T11:45:45.481Z,49.03
2022-09-20T11:48:21.031Z,50.09
2022-09-20T11:51:11.252Z,47.89
2022-09-20T11:54:11.182Z,47.06
2022-09-20T11:56:40.643Z,47.11
2022-09-20T11:59:28.505Z,49.15
2022-09-20T12:01:59.514Z,46.46
2022-09-20T12:04:33.417Z,49.75
2022-09-20T12:07:08.874Z,49.91
2022-09-20T12:09:41.663Z,49.39
2022-09-20T12:12:24.430Z,48.42
2022-09-20T12:14:56.958Z,47.42
2022-09-20T12:18:29.123Z,48.84
2022-09-20T12:21:07.362Z,44.75
2022-09-20T12:23:48.790Z,46.47
2022-09-20T12:26:53.013Z,45.72
2022-09-20T12:30:03.306Z,45.39
2022-09-20T12:32:57.387Z,46.01
2022-09-20T12:36:17.476Z,45.18
2022-09-20T12:38:50.443Z,42.77
2022-09-20T12:41:27.957Z,47.27
2022-09-20T12:44:01.744Z,47.90
2022-09-20T12:46:37.960Z,46.65
2022-09-20T12:49:52.806Z,45.87
2022-09-20T12:52:53.363Z,43.17
2022-09-20T12:55:45.657Z,43.81
2022-09-20T12:58:32.735Z,43.06
2022-09-20T13:01:31.248Z,43.60
2022-09-20T13:04:36.671Z,43.14
2022-09-20T13:07:43.724Z,43.28
2022-09-20T13:10:31.365Z,41.24
2022-09-20T13:13:05.671Z,42.36
2022-09-20T13:15:34.906Z,45.43
2022-09-20T13:18:03.598Z,45.93
2022-09-20T13:20:34.872Z,46.04
2022-09-20T13:23:06.250Z,47.23
2022-09-20T13:25:35.118Z,44.88
2022-09-20T13:28:09.962Z,47.02
2022-09-20T13:30:41.806Z,43.49
2022-09-20T13:33:24.101Z,46.29
2022-09-20T13:35:57.132Z,41.33
2022-09-20T13:38:31.459Z,44.90
2022-09-20T13:41:06.201Z,45.42
2022-09-20T13:43:38.834Z,45.15
2022-09-20T13:46:13.294Z,43.46
2022-09-20T13:48:42.512Z,44.15
2022-09-20T13:51:19.187Z,45.98
2022-09-20T13:53:50.193Z,43.13
2022-09-20T13:56:22.682Z,43.98
2022-09-20T13:58:52.746Z,43.88
2022-09-20T14:01:29.251Z,45.09
2022-09-20T14:04:06.179Z,42.76
2022-09-20T14:06:34.979Z,43.00
2022-09-20T14:09:11.135Z,45.24
2022-09-20T14:11:40.969Z,44.77
2022-09-20T14:14:10.749Z,45.07
2022-09-20T14:16:41.207Z,42.86
2022-09-20T14:19:09.782Z,43.25
2022-09-20T14:21:38.849Z,44.55
2022-09-20T14:24:23.891Z,44.85
2022-09-20T14:27:03.056Z,43.22
2022-09-20T14:29:38.494Z,41.47
2022-09-20T14:32:12.681Z,44.64
2022-09-20T14:34:42.343Z,42.70
2022-09-20T14:37:14.766Z,44.24
2022-09-20T14:39:49.876Z,44.05
2022-09-20T14:42:25.853Z,42.77
2022-09-20T14:44:54.226Z,41.60
2022-09-20T14:47:29.770Z,44.08
2022-09-20T14:49:58.941Z,42.39
2022-09-20T14:52:40.826Z,44.44
2022-09-20T14:55:22.522Z,41.80
2022-09-20T14:57:51.221Z,41.53
2022-09-20T15:00:22.124Z,43.82
2022-09-20T15:02:52.006Z,43.70
2022-09-20T15:05:26.009Z,43.72
2022-09-20T15:07:55.673Z,43.34
2022-09-20T15:10:25.518Z,43.62
2022-09-20T15:12:55.782Z,42.73
2022-09-20T15:15:24.293Z,44.02
2022-09-20T15:17:52.453Z,43.83
2022-09-20T15:20:24.422Z,43.55
2022-09-20T15:22:53.495Z,42.81
2022-09-20T15:25:22.248Z,43.45
2022-09-20T15:27:52.295Z,43.99
2022-09-20T15:30:21.072Z,43.69
2022-09-20T15:32:49.131Z,43.96
2022-09-20T15:35:17.208Z,43.49
2022-09-20T15:37:45.594Z,43.57
2022-09-20T15:40:13.542Z,43.29
2022-09-20T15:42:41.976Z,43.94
2022-09-20T15:45:12.672Z,43.95
2022-09-20T15:47:41.718Z,43.40
2022-09-20T15:50:10.944Z,43.61
2022-09-20T15:52:41.564Z,44.05
2022-09-20T15:55:10.897Z,44.24
2022-09-20T15:57:39.551Z,44.32
2022-09-20T16:00:09.243Z,44.26
2022-09-20T16:02:38.922Z,44.52
2022-09-20T16:07:35.734Z,44.31
2022-09-20T16:10:03.998Z,44.32
2022-09-20T16:12:32.294Z,44.34
2022-09-20T16:15:00.119Z,44.50
2022-09-20T16:17:42.281Z,44.53
2022-09-20T16:20:11.777Z,44.71
2022-09-20T16:22:39.988Z,44.76
2022-09-20T16:25:08.962Z,45.05
2022-09-20T16:27:36.857Z,45.23
2022-09-20T16:30:05.646Z,45.49
2022-09-20T16:32:34.130Z,45.72
2022-09-20T16:35:03.905Z,45.73
2022-09-20T16:37:37.100Z,45.72
2022-09-20T16:40:05.511Z,45.80
2022-09-20T16:42:33.694Z,45.92
2022-09-20T16:45:01.943Z,46.10
2022-09-20T16:47:30.942Z,46.16
2022-09-20T16:49:59.016Z,46.23
2022-09-20T16:52:27.432Z,46.06
2022-09-20T16:54:56.612Z,46.00
2022-09-20T16:57:24.747Z,46.04
2022-09-20T16:59:55.704Z,45.79
2022-09-20T17:02:23.580Z,45.81
2022-09-20T17:04:51.919Z,45.92
2022-09-20T17:07:24.222Z,46.20
2022-09-20T17:09:53.471Z,46.76
2022-09-20T17:12:25.030Z,47.06
2022-09-20T17:14:53.110Z,47.09
2022-09-20T17:17:22.809Z,47.48
2022-09-20T17:19:50.672Z,47.73
2022-09-20T17:22:18.855Z,47.86
2022-09-20T17:24:46.771Z,47.54
2022-09-20T17:27:15.012Z,48.03
2022-09-20T17:29:45.404Z,48.39
2022-09-20T17:32:13.275Z,48.52
2022-09-20T17:34:41.327Z,48.77
2022-09-20T17:37:09.994Z,48.86
2022-09-20T17:39:37.981Z,49.13
2022-09-20T17:42:06.473Z,49.15
2022-09-20T17:44:36.758Z,49.29
2022-09-20T17:47:06.675Z,49.53
2022-09-20T17:49:34.871Z,49.76
2022-09-20T17:52:04.272Z,49.67
2022-09-20T17:54:32.172Z,50.07
2022-09-20T17:57:00.484Z,50.00
2022-09-20T17:59:28.360Z,50.06
2022-09-20T18:01:56.211Z,50.06
2022-09-20T18:04:25.623Z,50.23
2022-09-20T18:06:54.853Z,50.53
2022-09-20T18:09:24.670Z,50.51
2022-09-20T18:11:54.430Z,50.61
2022-09-20T18:14:24.083Z,50.57
2022-09-20T18:16:52.648Z,50.45
2022-09-20T18:19:22.588Z,50.25
2022-09-20T18:21:51.919Z,50.59
2022-09-20T18:24:20.096Z,50.80
2022-09-20T18:26:48.259Z,50.90
2022-09-20T18:29:18.166Z,50.86
2022-09-20T18:31:48.456Z,50.82
2022-09-20T18:34:18.498Z,50.67
2022-09-20T18:36:52.163Z,50.85
2022-09-20T18:39:24.439Z,50.90
2022-09-20T18:41:54.324Z,50.77
2022-09-20T18:44:23.886Z,50.76
2022-09-20T18:46:53.394Z,50.93
2022-09-20T18:49:22.755Z,50.87
2022-09-20T18:51:51.277Z,50.89
2022-09-20T18:54:22.242Z,50.87
2022-09-20T18:56:54.192Z,50.97
2022-09-20T18:59:25.147Z,51.06
2022-09-20T19:02:24.680Z,51.25
2022-09-20T19:05:13.228Z,51.65
2022-09-20T19:07:54.882Z,52.13
2022-09-20T19:10:37.988Z,52.01
2022-09-20T19:13:22.113Z,52.21
2022-09-20T19:16:04.433Z,52.34
2022-09-20T19:18:58.929Z,52.07
2022-09-20T19:21:37.436Z,52.53
2022-09-20T19:24:16.742Z,52.31
2022-09-20T19:26:45.610Z,52.65
2022-09-20T19:29:20.977Z,52.16
2022-09-20T19:31:51.541Z,52.63
2022-09-20T19:34:21.902Z,52.30
2022-09-20T19:37:03.249Z,52.22
2022-09-20T19:39:41.748Z,52.62
2022-09-20T19:42:20.037Z,52.89
2022-09-20T19:44:58.989Z,52.96
2022-09-20T19:47:36.892Z,53.10
2022-09-20T19:50:16.041Z,52.84
2022-09-20T19:52:45.373Z,53.01
2022-09-20T19:55:15.658Z,52.71
2022-09-20T19:57:47.710Z,52.81
2022-09-20T20:00:28.304Z,52.91
2022-09-20T20:02:59.690Z,53.01
2022-09-20T20:05:29.643Z,52.80
2022-09-20T20:08:13.785Z,52.96
2022-09-20T20:10:55.134Z,53.65
2022-09-20T20:13:50.633Z,53.58
2022-09-20T20:16:25.822Z,53.62
2022-09-20T20:19:08.802Z,53.36
2022-09-20T20:21:48.686Z,53.45
2022-09-20T20:24:25.788Z,53.82
2022-09-20T20:26:54.855Z,53.74
2022-09-20T20:29:25.775Z,53.35
2022-09-20T20:31:56.991Z,53.64
2022-09-20T20:34:26.819Z,54.18
2022-09-20T20:37:00.762Z,54.17
2022-09-20T20:39:29.871Z,54.17
2022-09-20T20:42:01.929Z,54.05
2022-09-20T20:44:31.342Z,53.58
2022-09-20T20:47:00.544Z,54.00
2022-09-20T20:49:28.509Z,53.26
2022-09-20T20:51:57.481Z,53.56
2022-09-20T20:54:25.464Z,53.24
2022-09-20T20:56:53.342Z,53.01
2022-09-20T20:59:21.555Z,53.17
2022-09-20T21:01:49.465Z,52.98
2022-09-20T21:04:18.723Z,53.15
2022-09-20T21:06:47.379Z,53.01
2022-09-20T21:09:15.350Z,53.04
2022-09-20T21:11:44.085Z,52.91
2022-09-20T21:14:13.126Z,52.98
2022-09-20T21:16:43.543Z,53.12
2022-09-20T21:19:14.765Z,52.94
2022-09-20T21:21:46.210Z,52.83
2022-09-20T21:24:17.256Z,53.08
2022-09-20T21:26:46.878Z,52.98
2022-09-20T21:29:16.172Z,52.77
2022-09-20T21:31:45.208Z,53.05
2022-09-20T21:34:16.211Z,53.37
2022-09-20T21:36:46.025Z,53.19
2022-09-20T21:39:14.315Z,52.93
2022-09-20T21:41:42.693Z,53.04
2022-09-20T21:44:12.171Z,53.07
2022-09-20T21:46:41.751Z,53.11
2022-09-20T21:49:11.454Z,53.26
2022-09-20T21:51:41.389Z,53.20
2022-09-20T21:54:11.471Z,53.28
2022-09-20T21:56:41.314Z,53.38
2022-09-20T21:59:09.893Z,53.38
2022-09-20T22:01:40.196Z,53.46
2022-09-20T22:04:10.325Z,53.70
2022-09-20T22:06:39.957Z,53.43
2022-09-20T22:09:10.362Z,53.75
2022-09-20T22:11:41.972Z,53.82
2022-09-20T22:14:11.581Z,54.20
2022-09-20T22:16:41.092Z,53.95
2022-09-20T22:19:11.169Z,53.87
2022-09-20T22:21:41.024Z,54.01
2022-09-20T22:24:10.439Z,54.08
2022-09-20T22:26:41.537Z,54.28
2022-09-20T22:29:10.364Z,54.50
2022-09-20T22:31:41.439Z,54.63
2022-09-20T22:34:09.559Z,54.91
2022-09-20T22:36:39.907Z,55.00
2022-09-20T22:39:10.253Z,55.14
2022-09-20T22:41:42.504Z,55.07
2022-09-20T22:44:11.318Z,55.40
2022-09-20T22:46:40.009Z,55.58
2022-09-20T22:49:08.527Z,55.14
2022-09-20T22:51:37.476Z,55.18
2022-09-20T22:54:08.158Z,55.26
2022-09-20T22:56:36.928Z,55.22
2022-09-20T22:59:08.376Z,55.35
2022-09-20T23:01:38.670Z,55.69
2022-09-20T23:04:09.737Z,55.42
2022-09-20T23:06:39.319Z,55.50
2022-09-20T23:09:09.521Z,55.67
2022-09-20T23:11:38.359Z,55.78
2022-09-20T23:14:07.965Z,55.78
2022-09-20T23:16:38.110Z,55.88
2022-09-20T23:19:07.617Z,55.75
2022-09-20T23:21:37.221Z,55.92
2022-09-20T23:24:07.728Z,55.77
2022-09-20T23:26:37.652Z,55.95
2022-09-20T23:29:09.077Z,56.02
2022-09-20T23:31:38.764Z,55.96
2022-09-20T23:34:08.380Z,56.06
2022-09-20T23:36:38.984Z,55.92
2022-09-20T23:39:08.596Z,55.81
2022-09-20T23:41:37.512Z,55.75
2022-09-20T23:44:07.570Z,55.85
2022-09-20T23:46:35.740Z,55.91
2022-09-20T23:49:04.341Z,56.26
2022-09-20T23:51:32.631Z,56.32
2022-09-20T23:54:00.788Z,56.32
2022-09-20T23:56:28.813Z,56.86
2022-09-20T23:58:56.746Z,56.74
